sensor_id;sensor_type;location;lat;lon;timestamp;P1;durP1;ratioP1;P2;durP2;ratioP2
13051;SDS011;6592;47.484;9.726;2023-08-17T00:00:18;5.28;;;1.52;;
13051;SDS011;6592;47.484;9.726;2023-08-17T00:02:46;3.97;;;1.50;;
13051;SDS011;6592;47.484;9.726;2023-08-17T00:05:14;5.10;;;1.60;;
13051;SDS011;6592;47.484;9.726;2023-08-17T00:07:43;3.22;;;1.50;;
13051;SDS011;6592;47.484;9.726;2023-08-17T00:10:11;4.20;;;1.50;;
13051;SDS011;6592;47.484;9.726;2023-08-17T00:12:42;2.95;;;1.30;;
13051;SDS011;6592;47.484;9.726;2023-08-17T00:15:10;2.90;;;1.40;;
13051;SDS011;6592;47.484;9.726;2023-08-17T00:17:38;2.78;;;1.42;;
13051;SDS011;6592;47.484;9.726;2023-08-17T00:20:07;2.78;;;1.40;;
13051;SDS011;6592;47.484;9.726;2023-08-17T00:22:36;3.25;;;1.70;;
13051;SDS011;6592;47.484;9.726;2023-08-17T00:25:05;2.75;;;1.60;;
13051;SDS011;6592;47.484;9.726;2023-08-17T00:27:33;3.35;;;1.70;;
13051;SDS011;6592;47.484;9.726;2023-08-17T00:30:04;3.42;;;1.67;;
13051;SDS011;6592;47.484;9.726;2023-08-17T00:32:33;3.63;;;1.35;;
13051;SDS011;6592;47.484;9.726;2023-08-17T00:35:01;3.00;;;1.40;;
13051;SDS011;6592;47.484;9.726;2023-08-17T00:37:29;3.05;;;1.42;;
13051;SDS011;6592;47.484;9.726;2023-08-17T00:39:58;4.45;;;1.63;;
13051;SDS011;6592;47.484;9.726;2023-08-17T00:42:26;2.75;;;1.42;;
13051;SDS011;6592;47.484;9.726;2023-08-17T00:44:54;2.70;;;1.27;;
13051;SDS011;6592;47.484;9.726;2023-08-17T00:47:24;2.63;;;1.33;;
13051;SDS011;6592;47.484;9.726;2023-08-17T00:49:53;4.18;;;1.35;;
13051;SDS011;6592;47.484;9.726;2023-08-17T00:52:22;3.78;;;1.48;;
13051;SDS011;6592;47.484;9.726;2023-08-17T00:54:51;3.03;;;1.30;;
13051;SDS011;6592;47.484;9.726;2023-08-17T00:57:19;3.50;;;1.40;;
13051;SDS011;6592;47.484;9.726;2023-08-17T00:59:48;4.35;;;1.35;;
13051;SDS011;6592;47.484;9.726;2023-08-17T01:05:00;3.60;;;1.38;;
13051;SDS011;6592;47.484;9.726;2023-08-17T01:07:29;2.42;;;1.17;;
13051;SDS011;6592;47.484;9.726;2023-08-17T01:09:57;2.65;;;1.52;;
13051;SDS011;6592;47.484;9.726;2023-08-17T01:12:28;3.05;;;1.50;;
13051;SDS011;6592;47.484;9.726;2023-08-17T01:14:59;2.60;;;1.48;;
13051;SDS011;6592;47.484;9.726;2023-08-17T01:17:36;2.65;;;1.58;;
13051;SDS011;6592;47.484;9.726;2023-08-17T01:20:10;3.85;;;1.30;;
13051;SDS011;6592;47.484;9.726;2023-08-17T01:22:41;2.92;;;1.50;;
13051;SDS011;6592;47.484;9.726;2023-08-17T01:27:43;2.70;;;1.50;;
13051;SDS011;6592;47.484;9.726;2023-08-17T01:30:12;2.83;;;1.60;;
13051;SDS011;6592;47.484;9.726;2023-08-17T01:35:16;2.95;;;1.52;;
13051;SDS011;6592;47.484;9.726;2023-08-17T01:37:56;3.75;;;1.85;;
13051;SDS011;6592;47.484;9.726;2023-08-17T01:40:28;4.38;;;1.85;;
13051;SDS011;6592;47.484;9.726;2023-08-17T01:43:00;3.30;;;1.80;;
13051;SDS011;6592;47.484;9.726;2023-08-17T01:45:29;2.97;;;1.73;;
13051;SDS011;6592;47.484;9.726;2023-08-17T01:47:58;3.17;;;1.50;;
13051;SDS011;6592;47.484;9.726;2023-08-17T01:50:26;3.33;;;1.80;;
13051;SDS011;6592;47.484;9.726;2023-08-17T01:52:55;4.32;;;2.00;;
13051;SDS011;6592;47.484;9.726;2023-08-17T01:55:23;5.18;;;1.98;;
13051;SDS011;6592;47.484;9.726;2023-08-17T01:57:53;4.32;;;2.00;;
13051;SDS011;6592;47.484;9.726;2023-08-17T02:00:21;4.55;;;2.03;;
13051;SDS011;6592;47.484;9.726;2023-08-17T02:02:49;5.35;;;1.80;;
13051;SDS011;6592;47.484;9.726;2023-08-17T02:05:18;5.15;;;1.73;;
13051;SDS011;6592;47.484;9.726;2023-08-17T02:07:46;3.90;;;1.98;;
13051;SDS011;6592;47.484;9.726;2023-08-17T02:10:14;3.67;;;2.20;;
13051;SDS011;6592;47.484;9.726;2023-08-17T02:12:43;4.70;;;2.03;;
13051;SDS011;6592;47.484;9.726;2023-08-17T02:15:13;5.03;;;2.10;;
13051;SDS011;6592;47.484;9.726;2023-08-17T02:17:42;3.08;;;1.85;;
13051;SDS011;6592;47.484;9.726;2023-08-17T02:20:11;5.28;;;2.10;;
13051;SDS011;6592;47.484;9.726;2023-08-17T02:22:40;3.15;;;1.92;;
13051;SDS011;6592;47.484;9.726;2023-08-17T02:25:08;4.72;;;2.17;;
13051;SDS011;6592;47.484;9.726;2023-08-17T02:27:36;4.43;;;2.00;;
13051;SDS011;6592;47.484;9.726;2023-08-17T02:30:05;6.18;;;2.20;;
13051;SDS011;6592;47.484;9.726;2023-08-17T02:32:36;5.22;;;2.08;;
13051;SDS011;6592;47.484;9.726;2023-08-17T02:35:04;3.90;;;2.40;;
13051;SDS011;6592;47.484;9.726;2023-08-17T02:37:34;4.97;;;2.22;;
13051;SDS011;6592;47.484;9.726;2023-08-17T02:40:02;5.22;;;2.00;;
13051;SDS011;6592;47.484;9.726;2023-08-17T02:42:31;5.60;;;2.13;;
13051;SDS011;6592;47.484;9.726;2023-08-17T02:44:59;4.30;;;2.25;;
13051;SDS011;6592;47.484;9.726;2023-08-17T02:47:28;5.82;;;1.92;;
13051;SDS011;6592;47.484;9.726;2023-08-17T02:49:58;4.72;;;2.17;;
13051;SDS011;6592;47.484;9.726;2023-08-17T02:52:26;5.28;;;2.20;;
13051;SDS011;6592;47.484;9.726;2023-08-17T02:54:54;4.85;;;2.47;;
13051;SDS011;6592;47.484;9.726;2023-08-17T02:57:23;4.18;;;2.25;;
13051;SDS011;6592;47.484;9.726;2023-08-17T02:59:51;3.60;;;2.08;;
13051;SDS011;6592;47.484;9.726;2023-08-17T03:02:20;4.95;;;2.20;;
13051;SDS011;6592;47.484;9.726;2023-08-17T03:04:48;4.25;;;2.30;;
13051;SDS011;6592;47.484;9.726;2023-08-17T03:07:18;7.70;;;2.70;;
13051;SDS011;6592;47.484;9.726;2023-08-17T03:09:46;7.32;;;2.10;;
13051;SDS011;6592;47.484;9.726;2023-08-17T03:12:15;5.05;;;2.70;;
13051;SDS011;6592;47.484;9.726;2023-08-17T03:14:43;5.28;;;2.40;;
13051;SDS011;6592;47.484;9.726;2023-08-17T03:17:11;5.90;;;2.33;;
13051;SDS011;6592;47.484;9.726;2023-08-17T03:19:40;3.97;;;2.28;;
13051;SDS011;6592;47.484;9.726;2023-08-17T03:22:08;5.80;;;2.40;;
13051;SDS011;6592;47.484;9.726;2023-08-17T03:24:38;3.47;;;2.20;;
13051;SDS011;6592;47.484;9.726;2023-08-17T03:27:06;4.50;;;2.70;;
13051;SDS011;6592;47.484;9.726;2023-08-17T03:29:34;4.80;;;2.25;;
13051;SDS011;6592;47.484;9.726;2023-08-17T03:32:03;5.38;;;2.10;;
13051;SDS011;6592;47.484;9.726;2023-08-17T03:34:31;5.00;;;2.10;;
13051;SDS011;6592;47.484;9.726;2023-08-17T03:37:00;4.50;;;2.30;;
13051;SDS011;6592;47.484;9.726;2023-08-17T03:39:28;3.88;;;2.28;;
13051;SDS011;6592;47.484;9.726;2023-08-17T03:41:58;4.18;;;2.47;;
13051;SDS011;6592;47.484;9.726;2023-08-17T03:44:26;5.53;;;2.40;;
13051;SDS011;6592;47.484;9.726;2023-08-17T03:46:55;5.35;;;2.35;;
13051;SDS011;6592;47.484;9.726;2023-08-17T03:49:23;3.88;;;2.33;;
13051;SDS011;6592;47.484;9.726;2023-08-17T03:51:51;7.82;;;2.42;;
13051;SDS011;6592;47.484;9.726;2023-08-17T03:54:19;6.85;;;2.50;;
13051;SDS011;6592;47.484;9.726;2023-08-17T03:56:48;5.32;;;2.45;;
13051;SDS011;6592;47.484;9.726;2023-08-17T03:59:17;5.25;;;2.40;;
13051;SDS011;6592;47.484;9.726;2023-08-17T04:01:45;5.43;;;2.50;;
13051;SDS011;6592;47.484;9.726;2023-08-17T04:04:14;5.50;;;2.45;;
13051;SDS011;6592;47.484;9.726;2023-08-17T04:06:42;5.93;;;2.38;;
13051;SDS011;6592;47.484;9.726;2023-08-17T04:09:10;6.65;;;2.40;;
13051;SDS011;6592;47.484;9.726;2023-08-17T04:11:39;4.88;;;2.60;;
13051;SDS011;6592;47.484;9.726;2023-08-17T04:14:07;4.47;;;2.55;;
13051;SDS011;6592;47.484;9.726;2023-08-17T04:16:37;7.90;;;2.83;;
13051;SDS011;6592;47.484;9.726;2023-08-17T04:19:05;4.15;;;2.40;;
13051;SDS011;6592;47.484;9.726;2023-08-17T04:21:34;7.65;;;2.38;;
13051;SDS011;6592;47.484;9.726;2023-08-17T04:24:02;4.45;;;2.38;;
13051;SDS011;6592;47.484;9.726;2023-08-17T04:26:31;7.07;;;2.55;;
13051;SDS011;6592;47.484;9.726;2023-08-17T04:28:59;5.20;;;2.53;;
13051;SDS011;6592;47.484;9.726;2023-08-17T04:31:28;5.53;;;2.60;;
13051;SDS011;6592;47.484;9.726;2023-08-17T04:33:57;8.65;;;2.53;;
13051;SDS011;6592;47.484;9.726;2023-08-17T04:36:26;5.47;;;2.60;;
13051;SDS011;6592;47.484;9.726;2023-08-17T04:38:54;3.90;;;2.08;;
13051;SDS011;6592;47.484;9.726;2023-08-17T04:41:22;8.30;;;2.45;;
13051;SDS011;6592;47.484;9.726;2023-08-17T04:43:50;4.75;;;2.33;;
13051;SDS011;6592;47.484;9.726;2023-08-17T04:46:19;3.75;;;2.25;;
13051;SDS011;6592;47.484;9.726;2023-08-17T04:48:47;4.25;;;2.03;;
13051;SDS011;6592;47.484;9.726;2023-08-17T04:51:17;5.32;;;2.22;;
13051;SDS011;6592;47.484;9.726;2023-08-17T04:53:45;3.70;;;2.08;;
13051;SDS011;6592;47.484;9.726;2023-08-17T04:56:14;4.07;;;2.15;;
13051;SDS011;6592;47.484;9.726;2023-08-17T04:58:42;5.20;;;2.10;;
13051;SDS011;6592;47.484;9.726;2023-08-17T05:01:10;3.78;;;2.10;;
13051;SDS011;6592;47.484;9.726;2023-08-17T05:03:38;3.97;;;2.13;;
13051;SDS011;6592;47.484;9.726;2023-08-17T05:06:07;4.15;;;1.80;;
13051;SDS011;6592;47.484;9.726;2023-08-17T05:08:37;3.70;;;2.10;;
13051;SDS011;6592;47.484;9.726;2023-08-17T05:11:05;3.20;;;1.77;;
13051;SDS011;6592;47.484;9.726;2023-08-17T05:13:33;3.60;;;2.08;;
13051;SDS011;6592;47.484;9.726;2023-08-17T05:16:01;5.57;;;1.90;;
13051;SDS011;6592;47.484;9.726;2023-08-17T05:18:30;6.10;;;1.98;;
13051;SDS011;6592;47.484;9.726;2023-08-17T05:20:58;5.15;;;1.80;;
13051;SDS011;6592;47.484;9.726;2023-08-17T05:23:27;4.07;;;1.70;;
13051;SDS011;6592;47.484;9.726;2023-08-17T05:25:56;2.90;;;2.00;;
13051;SDS011;6592;47.484;9.726;2023-08-17T05:28:25;4.90;;;1.50;;
13051;SDS011;6592;47.484;9.726;2023-08-17T05:30:53;5.93;;;2.00;;
13051;SDS011;6592;47.484;9.726;2023-08-17T05:33:21;2.88;;;1.88;;
13051;SDS011;6592;47.484;9.726;2023-08-17T05:35:53;4.65;;;2.03;;
13051;SDS011;6592;47.484;9.726;2023-08-17T05:38:21;4.10;;;2.20;;
13051;SDS011;6592;47.484;9.726;2023-08-17T05:40:53;3.22;;;1.88;;
13051;SDS011;6592;47.484;9.726;2023-08-17T05:43:24;4.57;;;2.30;;
13051;SDS011;6592;47.484;9.726;2023-08-17T05:45:53;4.60;;;2.00;;
13051;SDS011;6592;47.484;9.726;2023-08-17T05:48:21;4.28;;;2.08;;
13051;SDS011;6592;47.484;9.726;2023-08-17T05:50:49;3.50;;;2.15;;
13051;SDS011;6592;47.484;9.726;2023-08-17T05:53:18;4.38;;;2.38;;
13051;SDS011;6592;47.484;9.726;2023-08-17T05:55:46;3.40;;;1.70;;
13051;SDS011;6592;47.484;9.726;2023-08-17T05:58:14;5.32;;;1.88;;
13051;SDS011;6592;47.484;9.726;2023-08-17T06:00:44;3.58;;;1.88;;
13051;SDS011;6592;47.484;9.726;2023-08-17T06:03:12;3.92;;;1.88;;
13051;SDS011;6592;47.484;9.726;2023-08-17T06:05:40;5.10;;;1.90;;
13051;SDS011;6592;47.484;9.726;2023-08-17T06:08:08;5.25;;;1.88;;
13051;SDS011;6592;47.484;9.726;2023-08-17T06:10:37;3.75;;;1.83;;
13051;SDS011;6592;47.484;9.726;2023-08-17T06:13:05;6.90;;;1.88;;
13051;SDS011;6592;47.484;9.726;2023-08-17T06:15:33;3.05;;;1.80;;
13051;SDS011;6592;47.484;9.726;2023-08-17T06:18:03;3.75;;;1.85;;
13051;SDS011;6592;47.484;9.726;2023-08-17T06:20:32;5.43;;;1.85;;
13051;SDS011;6592;47.484;9.726;2023-08-17T06:23:00;4.45;;;1.77;;
13051;SDS011;6592;47.484;9.726;2023-08-17T06:25:29;3.55;;;1.80;;
13051;SDS011;6592;47.484;9.726;2023-08-17T06:27:57;3.85;;;1.65;;
13051;SDS011;6592;47.484;9.726;2023-08-17T06:30:26;2.67;;;1.50;;
13051;SDS011;6592;47.484;9.726;2023-08-17T06:32:54;3.22;;;1.80;;
13051;SDS011;6592;47.484;9.726;2023-08-17T06:35:24;3.08;;;1.60;;
13051;SDS011;6592;47.484;9.726;2023-08-17T06:37:52;4.03;;;1.83;;
13051;SDS011;6592;47.484;9.726;2023-08-17T06:40:24;3.25;;;1.60;;
13051;SDS011;6592;47.484;9.726;2023-08-17T06:42:52;5.25;;;1.70;;
13051;SDS011;6592;47.484;9.726;2023-08-17T06:45:21;3.88;;;1.63;;
13051;SDS011;6592;47.484;9.726;2023-08-17T06:47:49;5.38;;;1.67;;
13051;SDS011;6592;47.484;9.726;2023-08-17T06:50:18;4.45;;;1.48;;
13051;SDS011;6592;47.484;9.726;2023-08-17T06:52:48;4.63;;;1.60;;
13051;SDS011;6592;47.484;9.726;2023-08-17T06:55:16;2.53;;;1.25;;
13051;SDS011;6592;47.484;9.726;2023-08-17T06:57:44;2.55;;;1.15;;
13051;SDS011;6592;47.484;9.726;2023-08-17T07:00:13;2.53;;;1.23;;
13051;SDS011;6592;47.484;9.726;2023-08-17T07:02:42;2.20;;;1.10;;
13051;SDS011;6592;47.484;9.726;2023-08-17T07:05:21;2.20;;;1.10;;
13051;SDS011;6592;47.484;9.726;2023-08-17T07:07:51;2.95;;;1.30;;
13051;SDS011;6592;47.484;9.726;2023-08-17T07:10:21;2.75;;;1.30;;
13051;SDS011;6592;47.484;9.726;2023-08-17T07:12:49;2.67;;;1.30;;
13051;SDS011;6592;47.484;9.726;2023-08-17T07:15:18;2.30;;;1.13;;
13051;SDS011;6592;47.484;9.726;2023-08-17T07:17:46;2.08;;;1.00;;
13051;SDS011;6592;47.484;9.726;2023-08-17T07:20:14;2.95;;;1.20;;
13051;SDS011;6592;47.484;9.726;2023-08-17T07:22:43;2.97;;;1.33;;
13051;SDS011;6592;47.484;9.726;2023-08-17T07:25:13;2.60;;;1.10;;
13051;SDS011;6592;47.484;9.726;2023-08-17T07:27:41;2.22;;;1.00;;
13051;SDS011;6592;47.484;9.726;2023-08-17T07:30:10;2.50;;;1.30;;
13051;SDS011;6592;47.484;9.726;2023-08-17T07:32:39;3.25;;;1.23;;
13051;SDS011;6592;47.484;9.726;2023-08-17T07:35:07;2.83;;;1.20;;
13051;SDS011;6592;47.484;9.726;2023-08-17T07:37:35;2.30;;;1.05;;
13051;SDS011;6592;47.484;9.726;2023-08-17T07:40:04;3.50;;;1.40;;
13051;SDS011;6592;47.484;9.726;2023-08-17T07:42:35;2.07;;;1.27;;
13051;SDS011;6592;47.484;9.726;2023-08-17T07:45:04;2.80;;;1.10;;
13051;SDS011;6592;47.484;9.726;2023-08-17T07:47:34;3.45;;;1.40;;
13051;SDS011;6592;47.484;9.726;2023-08-17T07:50:03;4.03;;;1.20;;
13051;SDS011;6592;47.484;9.726;2023-08-17T07:52:32;3.67;;;1.40;;
13051;SDS011;6592;47.484;9.726;2023-08-17T07:55:00;1.85;;;1.20;;
13051;SDS011;6592;47.484;9.726;2023-08-17T07:57:29;3.45;;;1.20;;
13051;SDS011;6592;47.484;9.726;2023-08-17T07:59:59;2.55;;;1.50;;
13051;SDS011;6592;47.484;9.726;2023-08-17T08:02:27;2.42;;;1.38;;
13051;SDS011;6592;47.484;9.726;2023-08-17T08:04:56;2.55;;;1.20;;
13051;SDS011;6592;47.484;9.726;2023-08-17T08:07:24;3.28;;;1.20;;
13051;SDS011;6592;47.484;9.726;2023-08-17T08:09:53;2.20;;;1.25;;
13051;SDS011;6592;47.484;9.726;2023-08-17T08:12:21;2.90;;;1.35;;
13051;SDS011;6592;47.484;9.726;2023-08-17T08:14:49;2.10;;;1.25;;
13051;SDS011;6592;47.484;9.726;2023-08-17T08:17:19;2.60;;;1.30;;
13051;SDS011;6592;47.484;9.726;2023-08-17T08:19:47;4.63;;;1.25;;
13051;SDS011;6592;47.484;9.726;2023-08-17T08:22:17;2.00;;;1.05;;
13051;SDS011;6592;47.484;9.726;2023-08-17T08:24:45;2.50;;;1.10;;
13051;SDS011;6592;47.484;9.726;2023-08-17T08:27:13;1.63;;;1.17;;
13051;SDS011;6592;47.484;9.726;2023-08-17T08:29:42;2.33;;;1.15;;
13051;SDS011;6592;47.484;9.726;2023-08-17T08:32:10;3.05;;;1.23;;
13051;SDS011;6592;47.484;9.726;2023-08-17T08:34:39;2.72;;;1.40;;
13051;SDS011;6592;47.484;9.726;2023-08-17T08:37:08;1.97;;;1.07;;
13051;SDS011;6592;47.484;9.726;2023-08-17T08:39:47;2.67;;;1.27;;
13051;SDS011;6592;47.484;9.726;2023-08-17T08:42:17;3.42;;;1.25;;
13051;SDS011;6592;47.484;9.726;2023-08-17T08:44:45;2.50;;;1.10;;
13051;SDS011;6592;47.484;9.726;2023-08-17T08:47:13;2.47;;;1.42;;
13051;SDS011;6592;47.484;9.726;2023-08-17T08:49:47;3.58;;;1.15;;
13051;SDS011;6592;47.484;9.726;2023-08-17T08:52:19;2.55;;;1.35;;
13051;SDS011;6592;47.484;9.726;2023-08-17T08:54:50;5.07;;;1.23;;
13051;SDS011;6592;47.484;9.726;2023-08-17T08:57:22;6.85;;;1.33;;
13051;SDS011;6592;47.484;9.726;2023-08-17T08:59:51;3.13;;;1.60;;
13051;SDS011;6592;47.484;9.726;2023-08-17T09:02:23;1.90;;;1.08;;
13051;SDS011;6592;47.484;9.726;2023-08-17T09:04:54;2.38;;;1.13;;
13051;SDS011;6592;47.484;9.726;2023-08-17T09:07:22;3.00;;;1.20;;
13051;SDS011;6592;47.484;9.726;2023-08-17T09:09:52;4.68;;;1.10;;
13051;SDS011;6592;47.484;9.726;2023-08-17T09:12:21;3.45;;;1.08;;
13051;SDS011;6592;47.484;9.726;2023-08-17T09:15:05;4.00;;;1.52;;
13051;SDS011;6592;47.484;9.726;2023-08-17T09:17:34;5.13;;;1.45;;
13051;SDS011;6592;47.484;9.726;2023-08-17T09:20:05;3.28;;;1.35;;
13051;SDS011;6592;47.484;9.726;2023-08-17T09:22:39;2.30;;;1.20;;
13051;SDS011;6592;47.484;9.726;2023-08-17T09:25:08;1.67;;;1.20;;
13051;SDS011;6592;47.484;9.726;2023-08-17T09:27:37;2.25;;;1.40;;
13051;SDS011;6592;47.484;9.726;2023-08-17T09:32:37;3.08;;;1.70;;
13051;SDS011;6592;47.484;9.726;2023-08-17T09:35:07;3.53;;;1.40;;
13051;SDS011;6592;47.484;9.726;2023-08-17T09:40:04;2.78;;;1.30;;
13051;SDS011;6592;47.484;9.726;2023-08-17T09:42:35;1.95;;;1.25;;
13051;SDS011;6592;47.484;9.726;2023-08-17T09:45:04;3.75;;;1.92;;
13051;SDS011;6592;47.484;9.726;2023-08-17T09:47:33;3.47;;;1.90;;
13051;SDS011;6592;47.484;9.726;2023-08-17T09:50:03;3.63;;;1.80;;
13051;SDS011;6592;47.484;9.726;2023-08-17T09:52:38;3.25;;;2.10;;
13051;SDS011;6592;47.484;9.726;2023-08-17T09:55:07;3.10;;;2.15;;
13051;SDS011;6592;47.484;9.726;2023-08-17T09:57:37;2.80;;;2.08;;
13051;SDS011;6592;47.484;9.726;2023-08-17T10:00:06;3.33;;;2.00;;
13051;SDS011;6592;47.484;9.726;2023-08-17T10:02:37;3.63;;;2.00;;
13051;SDS011;6592;47.484;9.726;2023-08-17T10:05:07;5.78;;;2.13;;
13051;SDS011;6592;47.484;9.726;2023-08-17T10:07:38;3.88;;;2.42;;
13051;SDS011;6592;47.484;9.726;2023-08-17T10:10:12;5.63;;;2.30;;
13051;SDS011;6592;47.484;9.726;2023-08-17T10:12:44;3.10;;;2.20;;
13051;SDS011;6592;47.484;9.726;2023-08-17T10:15:17;3.80;;;2.05;;
13051;SDS011;6592;47.484;9.726;2023-08-17T10:17:49;3.65;;;1.80;;
13051;SDS011;6592;47.484;9.726;2023-08-17T10:20:29;4.80;;;2.10;;
13051;SDS011;6592;47.484;9.726;2023-08-17T10:23:00;4.40;;;2.15;;
13051;SDS011;6592;47.484;9.726;2023-08-17T10:25:35;4.85;;;2.00;;
13051;SDS011;6592;47.484;9.726;2023-08-17T10:28:04;3.28;;;2.10;;
13051;SDS011;6592;47.484;9.726;2023-08-17T10:30:33;3.83;;;1.87;;
13051;SDS011;6592;47.484;9.726;2023-08-17T10:33:01;4.82;;;1.77;;
13051;SDS011;6592;47.484;9.726;2023-08-17T10:35:33;2.75;;;1.90;;
13051;SDS011;6592;47.484;9.726;2023-08-17T10:38:03;2.75;;;1.90;;
13051;SDS011;6592;47.484;9.726;2023-08-17T10:40:36;2.75;;;1.88;;
13051;SDS011;6592;47.484;9.726;2023-08-17T10:43:06;4.18;;;1.80;;
13051;SDS011;6592;47.484;9.726;2023-08-17T10:45:35;2.95;;;1.80;;
13051;SDS011;6592;47.484;9.726;2023-08-17T10:48:24;3.03;;;1.90;;
13051;SDS011;6592;47.484;9.726;2023-08-17T10:51:05;2.63;;;1.88;;
13051;SDS011;6592;47.484;9.726;2023-08-17T10:53:34;2.63;;;1.73;;
13051;SDS011;6592;47.484;9.726;2023-08-17T10:56:10;3.45;;;2.00;;
13051;SDS011;6592;47.484;9.726;2023-08-17T10:58:41;4.20;;;1.88;;
13051;SDS011;6592;47.484;9.726;2023-08-17T11:01:10;7.78;;;2.42;;
13051;SDS011;6592;47.484;9.726;2023-08-17T11:03:41;3.65;;;2.00;;
13051;SDS011;6592;47.484;9.726;2023-08-17T11:06:15;4.13;;;2.15;;
13051;SDS011;6592;47.484;9.726;2023-08-17T11:08:51;3.42;;;1.90;;
13051;SDS011;6592;47.484;9.726;2023-08-17T11:11:22;3.67;;;2.10;;
13051;SDS011;6592;47.484;9.726;2023-08-17T11:13:52;4.60;;;1.92;;
13051;SDS011;6592;47.484;9.726;2023-08-17T11:16:23;2.85;;;1.92;;
13051;SDS011;6592;47.484;9.726;2023-08-17T11:18:51;3.17;;;1.88;;
13051;SDS011;6592;47.484;9.726;2023-08-17T11:21:23;3.53;;;1.83;;
13051;SDS011;6592;47.484;9.726;2023-08-17T11:26:23;3.65;;;2.05;;
13051;SDS011;6592;47.484;9.726;2023-08-17T11:28:51;3.15;;;2.05;;
13051;SDS011;6592;47.484;9.726;2023-08-17T11:31:20;2.97;;;1.92;;
13051;SDS011;6592;47.484;9.726;2023-08-17T11:33:49;3.72;;;1.95;;
13051;SDS011;6592;47.484;9.726;2023-08-17T11:36:22;4.15;;;2.10;;
13051;SDS011;6592;47.484;9.726;2023-08-17T11:38:52;2.65;;;1.88;;
13051;SDS011;6592;47.484;9.726;2023-08-17T11:41:20;2.70;;;1.88;;
13051;SDS011;6592;47.484;9.726;2023-08-17T11:43:49;3.40;;;2.17;;
13051;SDS011;6592;47.484;9.726;2023-08-17T11:46:17;3.75;;;2.05;;
13051;SDS011;6592;47.484;9.726;2023-08-17T11:48:48;4.38;;;2.22;;
13051;SDS011;6592;47.484;9.726;2023-08-17T11:51:29;4.10;;;2.10;;
13051;SDS011;6592;47.484;9.726;2023-08-17T11:53:58;2.90;;;2.10;;
13051;SDS011;6592;47.484;9.726;2023-08-17T11:56:29;5.32;;;2.15;;
13051;SDS011;6592;47.484;9.726;2023-08-17T11:58:57;4.32;;;2.15;;
13051;SDS011;6592;47.484;9.726;2023-08-17T12:01:26;5.00;;;2.30;;
13051;SDS011;6592;47.484;9.726;2023-08-17T12:04:00;9.50;;;2.63;;
13051;SDS011;6592;47.484;9.726;2023-08-17T12:06:32;2.97;;;2.03;;
13051;SDS011;6592;47.484;9.726;2023-08-17T12:09:03;3.53;;;1.77;;
13051;SDS011;6592;47.484;9.726;2023-08-17T12:14:01;2.75;;;1.65;;
13051;SDS011;6592;47.484;9.726;2023-08-17T12:16:44;2.90;;;1.85;;
13051;SDS011;6592;47.484;9.726;2023-08-17T12:19:14;9.07;;;2.20;;
13051;SDS011;6592;47.484;9.726;2023-08-17T12:21:44;3.03;;;1.80;;
13051;SDS011;6592;47.484;9.726;2023-08-17T12:26:42;3.75;;;2.10;;
13051;SDS011;6592;47.484;9.726;2023-08-17T12:29:12;3.85;;;1.95;;
13051;SDS011;6592;47.484;9.726;2023-08-17T12:31:41;2.90;;;2.03;;
13051;SDS011;6592;47.484;9.726;2023-08-17T12:34:09;2.72;;;1.88;;
13051;SDS011;6592;47.484;9.726;2023-08-17T12:36:37;3.40;;;1.92;;
13051;SDS011;6592;47.484;9.726;2023-08-17T12:39:07;3.20;;;2.00;;
13051;SDS011;6592;47.484;9.726;2023-08-17T12:41:35;4.18;;;2.00;;
13051;SDS011;6592;47.484;9.726;2023-08-17T12:44:04;2.92;;;2.00;;
13051;SDS011;6592;47.484;9.726;2023-08-17T12:46:32;3.15;;;1.90;;
13051;SDS011;6592;47.484;9.726;2023-08-17T12:49:01;4.13;;;2.08;;
13051;SDS011;6592;47.484;9.726;2023-08-17T12:51:29;3.33;;;1.90;;
13051;SDS011;6592;47.484;9.726;2023-08-17T12:53:57;2.15;;;1.67;;
13051;SDS011;6592;47.484;9.726;2023-08-17T12:56:27;2.40;;;1.70;;
13051;SDS011;6592;47.484;9.726;2023-08-17T12:58:55;4.43;;;1.63;;
13051;SDS011;6592;47.484;9.726;2023-08-17T13:01:28;1.98;;;1.40;;
13051;SDS011;6592;47.484;9.726;2023-08-17T13:03:56;2.70;;;1.73;;
13051;SDS011;6592;47.484;9.726;2023-08-17T13:06:25;3.35;;;1.70;;
13051;SDS011;6592;47.484;9.726;2023-08-17T13:09:13;2.35;;;1.70;;
13051;SDS011;6592;47.484;9.726;2023-08-17T13:11:43;3.17;;;1.60;;
13051;SDS011;6592;47.484;9.726;2023-08-17T13:14:12;3.30;;;1.70;;
13051;SDS011;6592;47.484;9.726;2023-08-17T13:16:42;4.45;;;1.40;;
13051;SDS011;6592;47.484;9.726;2023-08-17T13:19:10;3.33;;;1.60;;
13051;SDS011;6592;47.484;9.726;2023-08-17T13:21:38;3.00;;;1.70;;
13051;SDS011;6592;47.484;9.726;2023-08-17T13:24:07;3.75;;;1.90;;
13051;SDS011;6592;47.484;9.726;2023-08-17T13:26:36;5.05;;;1.80;;
13051;SDS011;6592;47.484;9.726;2023-08-17T13:29:06;2.50;;;1.70;;
13051;SDS011;6592;47.484;9.726;2023-08-17T13:31:35;3.17;;;1.92;;
13051;SDS011;6592;47.484;9.726;2023-08-17T13:34:03;3.45;;;2.03;;
13051;SDS011;6592;47.484;9.726;2023-08-17T13:36:32;3.17;;;1.73;;
13051;SDS011;6592;47.484;9.726;2023-08-17T13:39:00;4.55;;;2.10;;
13051;SDS011;6592;47.484;9.726;2023-08-17T13:41:28;3.97;;;2.08;;
13051;SDS011;6592;47.484;9.726;2023-08-17T13:43:56;4.28;;;2.22;;
13051;SDS011;6592;47.484;9.726;2023-08-17T13:46:28;3.28;;;2.00;;
13051;SDS011;6592;47.484;9.726;2023-08-17T13:48:57;4.07;;;2.22;;
13051;SDS011;6592;47.484;9.726;2023-08-17T13:51:25;5.00;;;2.13;;
13051;SDS011;6592;47.484;9.726;2023-08-17T13:53:53;5.03;;;2.50;;
13051;SDS011;6592;47.484;9.726;2023-08-17T13:56:22;5.07;;;2.38;;
13051;SDS011;6592;47.484;9.726;2023-08-17T13:58:52;4.80;;;2.45;;
13051;SDS011;6592;47.484;9.726;2023-08-17T14:01:20;5.57;;;2.60;;
13051;SDS011;6592;47.484;9.726;2023-08-17T14:03:51;6.57;;;2.40;;
13051;SDS011;6592;47.484;9.726;2023-08-17T14:06:19;4.22;;;2.80;;
13051;SDS011;6592;47.484;9.726;2023-08-17T14:08:47;6.60;;;2.60;;
13051;SDS011;6592;47.484;9.726;2023-08-17T14:11:16;4.38;;;2.70;;
13051;SDS011;6592;47.484;9.726;2023-08-17T14:13:44;3.70;;;2.55;;
13051;SDS011;6592;47.484;9.726;2023-08-17T14:16:12;3.80;;;2.42;;
13051;SDS011;6592;47.484;9.726;2023-08-17T14:18:40;4.32;;;2.63;;
13051;SDS011;6592;47.484;9.726;2023-08-17T14:21:10;5.35;;;2.47;;
13051;SDS011;6592;47.484;9.726;2023-08-17T14:23:38;4.57;;;2.70;;
13051;SDS011;6592;47.484;9.726;2023-08-17T14:26:07;6.22;;;2.20;;
13051;SDS011;6592;47.484;9.726;2023-08-17T14:28:35;4.90;;;2.47;;
13051;SDS011;6592;47.484;9.726;2023-08-17T14:31:10;5.65;;;2.33;;
13051;SDS011;6592;47.484;9.726;2023-08-17T14:33:42;3.78;;;2.50;;
13051;SDS011;6592;47.484;9.726;2023-08-17T14:36:12;6.30;;;2.50;;
13051;SDS011;6592;47.484;9.726;2023-08-17T14:38:45;7.60;;;2.70;;
13051;SDS011;6592;47.484;9.726;2023-08-17T14:41:13;4.43;;;2.65;;
13051;SDS011;6592;47.484;9.726;2023-08-17T14:43:42;7.15;;;2.88;;
13051;SDS011;6592;47.484;9.726;2023-08-17T14:46:10;6.50;;;2.60;;
13051;SDS011;6592;47.484;9.726;2023-08-17T14:48:40;5.50;;;2.60;;
13051;SDS011;6592;47.484;9.726;2023-08-17T14:51:09;7.70;;;2.72;;
13051;SDS011;6592;47.484;9.726;2023-08-17T14:53:38;4.18;;;2.65;;
13051;SDS011;6592;47.484;9.726;2023-08-17T14:56:06;5.63;;;3.00;;
13051;SDS011;6592;47.484;9.726;2023-08-17T14:58:35;9.65;;;2.85;;
13051;SDS011;6592;47.484;9.726;2023-08-17T15:01:03;5.93;;;3.03;;
13051;SDS011;6592;47.484;9.726;2023-08-17T15:03:31;7.15;;;2.90;;
13051;SDS011;6592;47.484;9.726;2023-08-17T15:06:00;6.85;;;2.92;;
13051;SDS011;6592;47.484;9.726;2023-08-17T15:08:28;3.70;;;2.53;;
13051;SDS011;6592;47.484;9.726;2023-08-17T15:10:58;6.57;;;2.60;;
13051;SDS011;6592;47.484;9.726;2023-08-17T15:13:28;4.38;;;2.47;;
13051;SDS011;6592;47.484;9.726;2023-08-17T15:15:56;6.40;;;2.60;;
13051;SDS011;6592;47.484;9.726;2023-08-17T15:18:25;6.35;;;2.78;;
13051;SDS011;6592;47.484;9.726;2023-08-17T15:20:53;7.10;;;2.42;;
13051;SDS011;6592;47.484;9.726;2023-08-17T15:23:21;4.25;;;2.10;;
13051;SDS011;6592;47.484;9.726;2023-08-17T15:25:49;3.88;;;2.10;;
13051;SDS011;6592;47.484;9.726;2023-08-17T15:28:19;6.00;;;1.77;;
13051;SDS011;6592;47.484;9.726;2023-08-17T15:30:49;6.22;;;2.17;;
13051;SDS011;6592;47.484;9.726;2023-08-17T15:33:27;4.53;;;2.10;;